Dannelly, Alabama
Current Conditions -  °F | °C
As of 5:58 PM on Wednesday 26 Nov 2014 (Local Time) from KMXF Reporting Station
Clear Clear  
Wind Chill: 10°   Ceiling: Unl
Heat Index: 10°   Visibility: 10mi
Dew Point: -2°   Wind: 7mph
Humidity: 44%   Direction: 180°S
Pressure: 30.1"   Gusts: NA
Location:  32.3488°N, 86.4016°W
Report Text: KMXF 262358Z AUTO 18006KT 10SM CLR 10/M01 A3010 RMK AO2 SLP196 T01021015 10157 20086 58005
Loading
Personal Weather Stations






























Interactive Weather Map New forecast layout! Learn more

10-Day Weather Forecast

Advertisements
Track Severe Weather on mobile